Time;durP1;ratioP1;P1;durP2;ratioP2;P2;SDS_P1;SDS_P2;PMS_P1;PMS_P2;Temp;Humidity;BMP_temperature;BMP_pressure;BME280_temperature;BME280_humidity;BME280_pressure;Samples;Min_cycle;Max_cycle;Signal;HPM_P1;HPM_P2
2023/08/25 00:01:17;;;;;;;14.20;12.20;;;18.80;99.90;;;;;;5032264;28;21040;-68
2023/08/25 00:03:43;;;;;;;18.70;14.33;;;18.80;99.90;;;;;;5031270;28;20450;-69
2023/08/25 00:06:10;;;;;;;22.83;15.40;;;18.90;99.90;;;;;;5033117;28;20443;-69
2023/08/25 00:08:37;;;;;;;24.93;16.30;;;18.80;99.90;;;;;;5032201;28;20473;-69
2023/08/25 00:11:04;;;;;;;22.63;16.47;;;18.80;99.90;;;;;;5032252;28;20463;-69
2023/08/25 00:13:31;;;;;;;24.57;16.10;;;18.80;99.90;;;;;;5032153;28;20437;-69
2023/08/25 00:15:59;;;;;;;21.83;16.23;;;18.80;99.90;;;;;;5032416;28;21017;-69
2023/08/25 00:18:27;;;;;;;23.87;16.17;;;18.80;99.90;;;;;;5026769;28;20563;-69
2023/08/25 00:20:53;;;;;;;18.63;14.30;;;18.80;99.90;;;;;;5032194;28;20508;-69
2023/08/25 00:23:20;;;;;;;24.20;14.50;;;18.70;99.90;;;;;;5032200;28;20819;-69
2023/08/25 00:25:47;;;;;;;21.23;16.90;;;18.70;99.90;;;;;;5031897;28;20453;-69
2023/08/25 00:28:13;;;;;;;23.07;17.20;;;18.70;99.90;;;;;;5031325;28;20449;-70
2023/08/25 00:30:40;;;;;;;24.53;18.13;;;18.60;99.90;;;;;;5032090;28;20531;-69
2023/08/25 00:33:08;;;;;;;26.27;17.10;;;18.60;99.90;;;;;;5032306;28;20432;-69
2023/08/25 00:35:35;;;;;;;24.30;16.90;;;18.70;99.90;;;;;;5030592;28;20481;-69
2023/08/25 00:38:02;;;;;;;19.80;16.03;;;18.60;99.90;;;;;;5026558;28;20484;-69
2023/08/25 00:40:34;;;;;;;22.00;14.80;;;18.60;99.90;;;;;;5030815;28;20473;-68
2023/08/25 00:43:01;;;;;;;21.53;14.90;;;18.60;99.90;;;;;;5029664;28;20464;-69
2023/08/25 00:45:28;;;;;;;20.80;14.83;;;18.60;99.90;;;;;;5032113;28;20872;-69
2023/08/25 00:47:55;;;;;;;28.20;16.30;;;18.50;99.90;;;;;;5027165;28;20482;-69
2023/08/25 00:50:23;;;;;;;25.63;19.77;;;18.50;99.90;;;;;;5029869;28;20513;-69
2023/08/25 00:52:50;;;;;;;30.40;20.00;;;18.50;99.90;;;;;;5031462;28;20931;-69
2023/08/25 00:55:17;;;;;;;47.57;23.10;;;18.40;99.90;;;;;;5031441;28;20992;-69
2023/08/25 00:57:44;;;;;;;34.70;24.10;;;18.30;99.90;;;;;;5031566;28;20454;-69
2023/08/25 01:00:12;;;;;;;39.00;24.63;;;18.30;99.90;;;;;;5031819;28;20506;-69
2023/08/25 01:02:39;;;;;;;58.97;25.90;;;18.20;99.90;;;;;;5031260;28;20450;-69
2023/08/25 01:05:07;;;;;;;48.90;26.30;;;18.30;99.90;;;;;;5031014;28;20453;-69
2023/08/25 01:07:35;;;;;;;40.90;25.03;;;18.30;99.90;;;;;;5029930;28;20461;-69
2023/08/25 01:10:02;;;;;;;65.80;27.27;;;18.30;99.90;;;;;;5030632;28;20444;-69
2023/08/25 01:12:35;;;;;;;64.13;26.63;;;18.30;99.90;;;;;;5031428;28;20420;-69
2023/08/25 01:15:08;;;;;;;48.10;28.67;;;18.20;99.90;;;;;;5030965;28;20523;-69
2023/08/25 01:17:43;;;;;;;45.03;28.70;;;18.20;99.90;;;;;;5031432;28;20450;-69
2023/08/25 01:20:13;;;;;;;63.33;31.33;;;18.20;99.90;;;;;;5031100;28;20517;-69
2023/08/25 01:22:50;;;;;;;46.10;30.80;;;18.30;99.90;;;;;;5031094;28;20499;-69
2023/08/25 01:25:24;;;;;;;56.23;30.37;;;18.30;99.90;;;;;;5031291;28;20453;-69
2023/08/25 01:27:51;;;;;;;92.17;29.40;;;18.30;99.90;;;;;;5028908;28;20452;-69
2023/08/25 01:30:18;;;;;;;116.13;30.90;;;18.30;99.90;;;;;;5030859;28;20469;-69
2023/08/25 01:32:45;;;;;;;58.77;30.53;;;18.30;99.90;;;;;;5030835;28;20931;-69
2023/08/25 01:35:14;;;;;;;52.30;31.27;;;18.20;99.90;;;;;;5030217;28;20504;-68
2023/08/25 01:37:46;;;;;;;130.63;33.17;;;18.20;99.90;;;;;;5030830;28;20961;-68
2023/08/25 01:40:21;;;;;;;188.63;31.97;;;18.20;99.90;;;;;;5030279;28;20515;-68
2023/08/25 01:42:52;;;;;;;184.37;30.20;;;18.20;99.90;;;;;;5027869;28;20485;-68
2023/08/25 01:45:20;;;;;;;199.40;32.07;;;18.10;99.90;;;;;;5029176;28;20515;-68
2023/08/25 01:47:49;;;;;;;133.43;33.27;;;18.10;99.90;;;;;;5023711;28;20461;-68
2023/08/25 01:50:17;;;;;;;167.10;30.70;;;18.00;99.90;;;;;;5030872;28;20469;-69
2023/08/25 01:52:44;;;;;;;145.67;31.50;;;18.00;99.90;;;;;;5028025;28;20445;-69
2023/08/25 01:55:11;;;;;;;94.47;29.63;;;17.90;99.90;;;;;;5030712;28;20441;-69
2023/08/25 01:57:37;;;;;;;105.53;29.67;;;17.90;99.90;;;;;;5030280;28;20457;-69
2023/08/25 02:00:07;;;;;;;110.23;31.00;;;17.80;99.90;;;;;;5028646;28;20467;-69
2023/08/25 02:02:33;;;;;;;93.97;27.83;;;17.80;99.90;;;;;;5024457;28;20509;-69
2023/08/25 02:05:00;;;;;;;70.67;30.40;;;17.80;99.90;;;;;;5030912;28;20420;-69
2023/08/25 02:07:27;;;;;;;52.13;26.30;;;17.80;99.90;;;;;;5030583;28;20468;-69
2023/08/25 02:09:55;;;;;;;57.23;27.37;;;17.70;99.90;;;;;;5030572;28;20481;-69
2023/08/25 02:12:21;;;;;;;35.50;25.67;;;17.70;99.90;;;;;;5030013;28;20556;-69
2023/08/25 02:14:48;;;;;;;43.53;27.87;;;17.70;99.90;;;;;;5030188;28;20435;-68
2023/08/25 02:17:16;;;;;;;35.93;25.87;;;17.70;99.90;;;;;;5031016;28;20445;-69
2023/08/25 02:19:43;;;;;;;31.80;23.23;;;17.70;99.90;;;;;;5030458;28;20489;-68
2023/08/25 02:22:09;;;;;;;31.80;22.13;;;17.70;99.90;;;;;;5030041;28;20445;-69
2023/08/25 02:24:36;;;;;;;25.50;21.27;;;17.70;99.90;;;;;;5029901;28;20883;-69
2023/08/25 02:27:03;;;;;;;27.40;20.83;;;17.60;99.90;;;;;;5030346;28;20442;-69
2023/08/25 02:29:29;;;;;;;29.80;21.87;;;17.70;99.90;;;;;;5030384;28;20421;-69
2023/08/25 02:31:56;;;;;;;37.00;24.03;;;17.70;99.90;;;;;;5030001;28;20459;-69
2023/08/25 02:34:24;;;;;;;33.80;22.87;;;17.70;99.90;;;;;;5030512;28;20449;-69
2023/08/25 02:36:50;;;;;;;34.53;24.40;;;17.80;99.90;;;;;;5022896;28;20432;-69
2023/08/25 02:39:18;;;;;;;36.47;25.47;;;17.80;99.90;;;;;;5030160;28;20548;-69
2023/08/25 02:41:44;;;;;;;42.33;27.50;;;17.80;99.90;;;;;;5029608;28;20527;-69
2023/08/25 02:44:11;;;;;;;45.40;27.73;;;17.90;99.90;;;;;;5030691;28;20453;-69
2023/08/25 02:46:39;;;;;;;63.87;30.60;;;17.90;99.90;;;;;;5029983;28;20432;-69
2023/08/25 02:49:06;;;;;;;47.37;29.33;;;18.00;99.90;;;;;;5030390;28;20450;-69
2023/08/25 02:51:34;;;;;;;59.23;31.30;;;18.00;99.90;;;;;;5029175;28;20504;-69
2023/08/25 02:54:01;;;;;;;64.23;33.73;;;18.10;99.90;;;;;;5030228;28;20511;-69
2023/08/25 02:56:28;;;;;;;70.10;34.80;;;18.10;99.90;;;;;;5030186;28;21037;-69
2023/08/25 02:58:55;;;;;;;58.27;33.97;;;18.20;99.90;;;;;;5030360;28;20499;-69
2023/08/25 03:01:22;;;;;;;77.57;35.77;;;18.20;99.90;;;;;;5029914;28;20473;-69
2023/08/25 03:03:48;;;;;;;66.70;35.37;;;18.30;99.90;;;;;;5032829;28;20490;-69
2023/08/25 03:06:15;;;;;;;73.60;36.70;;;18.20;99.90;;;;;;5032983;28;20453;-69
2023/08/25 03:08:45;;;;;;;83.63;39.70;;;18.30;99.90;;;;;;5031083;28;20519;-69
2023/08/25 03:11:11;;;;;;;77.10;37.50;;;18.30;99.90;;;;;;5031460;28;20946;-69
2023/08/25 03:13:38;;;;;;;71.83;38.83;;;18.30;99.90;;;;;;5033610;28;20527;-69
2023/08/25 03:16:07;;;;;;;84.87;40.50;;;18.30;99.90;;;;;;5033177;28;20453;-69
2023/08/25 03:18:33;;;;;;;87.90;39.30;;;18.30;99.90;;;;;;5033512;28;20477;-69
2023/08/25 03:21:00;;;;;;;78.63;38.37;;;18.30;99.90;;;;;;5032441;28;20477;-69
2023/08/25 03:23:27;;;;;;;66.10;37.30;;;18.30;99.90;;;;;;5033418;28;20458;-69
2023/08/25 03:25:55;;;;;;;75.87;40.03;;;18.30;99.90;;;;;;5033572;28;20450;-69
2023/08/25 03:28:21;;;;;;;73.20;40.20;;;18.40;99.90;;;;;;5033483;28;20453;-69
2023/08/25 03:30:51;;;;;;;74.87;40.93;;;18.30;99.90;;;;;;5033063;28;21114;-69
2023/08/25 03:33:17;;;;;;;81.30;41.57;;;18.30;99.90;;;;;;5033263;28;20449;-69
2023/08/25 03:35:44;;;;;;;83.37;40.30;;;18.30;99.90;;;;;;5025602;28;20453;-69
2023/08/25 03:38:11;;;;;;;72.37;39.40;;;18.30;99.90;;;;;;5033545;28;20497;-69
2023/08/25 03:40:37;;;;;;;73.87;40.13;;;18.30;99.90;;;;;;5032646;28;20542;-69
2023/08/25 03:43:05;;;;;;;79.07;40.17;;;18.20;99.90;;;;;;5032852;28;20886;-69
2023/08/25 03:45:32;;;;;;;69.20;39.20;;;18.20;99.90;;;;;;5032854;28;20910;-69
2023/08/25 03:48:00;;;;;;;66.70;37.87;;;18.10;99.90;;;;;;5031117;28;20458;-69
2023/08/25 03:50:26;;;;;;;69.50;40.30;;;18.00;99.90;;;;;;5030685;28;20998;-69
2023/08/25 03:52:53;;;;;;;78.37;40.77;;;18.00;99.90;;;;;;5032574;28;20905;-69
2023/08/25 03:55:21;;;;;;;78.27;37.70;;;18.00;99.90;;;;;;5032736;28;20862;-69
2023/08/25 03:57:48;;;;;;;68.20;39.67;;;18.00;99.90;;;;;;5032600;28;20947;-69
2023/08/25 04:00:16;;;;;;;73.17;39.37;;;17.90;99.90;;;;;;5031633;28;20487;-69
2023/08/25 04:02:43;;;;;;;60.00;37.90;;;17.90;99.90;;;;;;5029425;28;20453;-68
2023/08/25 04:05:10;;;;;;;67.63;39.07;;;17.80;99.90;;;;;;5032639;28;20457;-69
2023/08/25 04:07:36;;;;;;;71.93;39.17;;;17.80;99.90;;;;;;5032015;28;20955;-69
2023/08/25 04:10:04;;;;;;;83.03;38.97;;;17.80;99.90;;;;;;5032513;28;20473;-69
2023/08/25 04:12:30;;;;;;;65.17;38.57;;;17.80;99.90;;;;;;5032223;28;20462;-69
2023/08/25 04:14:57;;;;;;;67.93;38.93;;;17.80;99.90;;;;;;5029277;28;20439;-69
2023/08/25 04:17:25;;;;;;;62.00;36.60;;;17.70;99.90;;;;;;5032466;28;20424;-69
2023/08/25 04:19:51;;;;;;;71.20;38.60;;;17.70;99.90;;;;;;5032581;28;20547;-69
2023/08/25 04:22:18;;;;;;;67.63;37.53;;;17.70;99.90;;;;;;5031725;28;20457;-69
2023/08/25 04:24:45;;;;;;;63.47;36.97;;;17.70;99.90;;;;;;5032276;28;20449;-69
2023/08/25 04:27:11;;;;;;;63.23;35.87;;;17.70;99.90;;;;;;5032040;28;20460;-69
2023/08/25 04:29:38;;;;;;;54.13;34.50;;;17.70;99.90;;;;;;5031763;28;20877;-69
2023/08/25 04:32:05;;;;;;;58.23;35.20;;;17.80;99.90;;;;;;5031097;28;20512;-69
2023/08/25 04:34:33;;;;;;;57.07;34.37;;;17.80;99.90;;;;;;5032260;28;20474;-69
2023/08/25 04:37:00;;;;;;;63.97;33.87;;;17.80;99.90;;;;;;5027041;28;20457;-69
2023/08/25 04:39:26;;;;;;;68.50;37.00;;;17.80;99.90;;;;;;5031871;28;20502;-68
2023/08/25 04:41:54;;;;;;;71.07;38.13;;;17.70;99.90;;;;;;5031330;28;20555;-69
2023/08/25 04:44:21;;;;;;;92.77;39.13;;;17.70;99.90;;;;;;5032030;28;20450;-68
2023/08/25 04:46:47;;;;;;;87.23;38.70;;;17.70;99.90;;;;;;5031708;28;20435;-69
2023/08/25 04:49:14;;;;;;;60.57;34.50;;;17.70;99.90;;;;;;5029371;28;21000;-69
2023/08/25 04:51:42;;;;;;;55.17;34.53;;;17.70;99.90;;;;;;5031019;28;20463;-69
2023/08/25 04:54:10;;;;;;;58.87;34.47;;;17.70;99.90;;;;;;5031874;28;20927;-69
2023/08/25 04:56:37;;;;;;;76.37;35.43;;;17.80;99.90;;;;;;5031525;28;20449;-69
2023/08/25 04:59:03;;;;;;;104.53;34.33;;;17.70;99.90;;;;;;5028653;28;20416;-67
2023/08/25 05:01:30;;;;;;;67.17;36.37;;;17.70;99.90;;;;;;5027367;28;20481;-67
2023/08/25 05:03:56;;;;;;;75.13;35.50;;;17.70;99.90;;;;;;5031589;28;20874;-68
2023/08/25 05:06:23;;;;;;;83.00;36.80;;;17.80;99.90;;;;;;5029988;28;20428;-68
2023/08/25 05:08:54;;;;;;;66.03;34.47;;;17.80;99.90;;;;;;5031033;28;20459;-67
2023/08/25 05:11:20;;;;;;;64.80;35.30;;;17.90;99.90;;;;;;5030915;28;20860;-68
2023/08/25 05:13:47;;;;;;;62.33;35.37;;;17.90;99.90;;;;;;5029957;28;20465;-67
2023/08/25 05:16:15;;;;;;;88.53;33.90;;;17.80;99.90;;;;;;5030027;28;20486;-68
2023/08/25 05:18:41;;;;;;;114.23;38.53;;;17.80;99.90;;;;;;5031280;28;20464;-68
2023/08/25 05:21:08;;;;;;;101.07;35.43;;;17.80;99.90;;;;;;5030828;28;21169;-68
2023/08/25 05:23:35;;;;;;;92.93;36.03;;;17.80;99.90;;;;;;5030965;28;20511;-69
2023/08/25 05:26:03;;;;;;;85.37;35.63;;;17.70;99.90;;;;;;5030733;28;20523;-68
2023/08/25 05:28:29;;;;;;;115.03;36.87;;;17.70;99.90;;;;;;5030807;28;20454;-68
2023/08/25 05:30:56;;;;;;;102.40;38.67;;;17.80;99.90;;;;;;5027965;28;20505;-69
2023/08/25 05:33:23;;;;;;;109.33;36.43;;;17.80;99.90;;;;;;5028260;28;20424;-69
2023/08/25 05:35:50;;;;;;;91.67;37.97;;;17.90;99.90;;;;;;5031179;28;20511;-69
2023/08/25 05:38:16;;;;;;;81.50;37.70;;;18.00;99.90;;;;;;5030967;28;20506;-69
2023/08/25 05:40:43;;;;;;;85.43;36.60;;;18.10;99.90;;;;;;5026766;28;20464;-69
2023/08/25 05:43:11;;;;;;;68.67;34.87;;;18.10;99.90;;;;;;5030666;28;20420;-69
2023/08/25 05:45:37;;;;;;;70.13;34.57;;;18.20;99.90;;;;;;5030794;28;20503;-68
2023/08/25 05:48:05;;;;;;;64.27;35.20;;;18.30;99.90;;;;;;5029210;28;20457;-69
2023/08/25 05:50:31;;;;;;;67.53;35.60;;;18.30;99.90;;;;;;5030774;28;20461;-69
2023/08/25 05:52:58;;;;;;;58.10;31.97;;;18.30;99.90;;;;;;5030653;28;20480;-69
2023/08/25 05:55:26;;;;;;;62.50;34.00;;;18.40;99.90;;;;;;5030428;28;20432;-68
2023/08/25 05:57:53;;;;;;;59.37;34.07;;;18.40;99.90;;;;;;5030833;28;20457;-68
2023/08/25 06:00:21;;;;;;;60.77;32.00;;;18.50;99.90;;;;;;5029584;28;20553;-68
2023/08/25 06:02:47;;;;;;;51.77;31.07;;;18.50;99.90;;;;;;5029550;28;20450;-68
2023/08/25 06:05:14;;;;;;;58.13;32.30;;;18.40;99.90;;;;;;5025935;28;20947;-67
2023/08/25 06:07:41;;;;;;;47.60;29.77;;;18.40;99.90;;;;;;5029656;28;20506;-68
2023/08/25 06:10:09;;;;;;;68.57;34.00;;;18.40;99.90;;;;;;5030280;28;20876;-68
2023/08/25 06:12:35;;;;;;;57.00;30.53;;;18.40;99.90;;;;;;5026679;28;20474;-72
2023/08/25 06:15:02;;;;;;;32.10;20.80;;;18.50;99.90;;;;;;5029201;28;20458;-73
2023/08/25 06:17:30;;;;;;;37.93;22.63;;;18.50;99.90;;;;;;5030553;28;20499;-73
2023/08/25 06:19:56;;;;;;;34.17;23.60;;;18.80;99.90;;;;;;5030351;28;20463;-71
2023/08/25 06:22:23;;;;;;;39.33;27.67;;;18.90;99.90;;;;;;5029625;28;20515;-72
2023/08/25 06:24:50;;;;;;;47.20;28.07;;;18.90;99.90;;;;;;5030624;28;20457;-72
2023/08/25 06:27:16;;;;;;;46.87;26.73;;;18.90;99.90;;;;;;5030617;28;20799;-71
2023/08/25 06:29:43;;;;;;;45.00;24.73;;;18.80;99.90;;;;;;5024764;28;20464;-72
2023/08/25 06:32:10;;;;;;;39.03;26.60;;;18.80;99.90;;;;;;5028766;28;20462;-71
2023/08/25 06:34:38;;;;;;;47.47;30.47;;;18.80;99.90;;;;;;5029732;28;21022;-71
2023/08/25 06:37:04;;;;;;;54.67;31.63;;;18.70;99.90;;;;;;5028427;28;20428;-72
2023/08/25 06:39:31;;;;;;;53.97;32.40;;;18.70;99.90;;;;;;5036348;28;20453;-72
2023/08/25 06:41:58;;;;;;;63.60;35.00;;;18.70;99.90;;;;;;5034236;28;20542;-71
2023/08/25 06:44:24;;;;;;;57.17;33.40;;;18.80;99.90;;;;;;5033763;28;20457;-72
2023/08/25 06:46:51;;;;;;;73.23;39.27;;;18.90;99.90;;;;;;5034077;28;20449;-73
2023/08/25 06:49:17;;;;;;;65.23;35.63;;;19.00;99.90;;;;;;5031464;28;20514;-73
2023/08/25 06:51:45;;;;;;;58.87;36.70;;;19.20;99.90;;;;;;5033291;28;20465;-71
2023/08/25 06:54:12;;;;;;;67.40;35.90;;;19.30;99.90;;;;;;5034247;28;20499;-72
2023/08/25 06:56:39;;;;;;;61.53;34.53;;;19.30;99.90;;;;;;5033774;28;20511;-72
2023/08/25 06:59:05;;;;;;;63.97;35.87;;;19.50;99.90;;;;;;5033904;28;20487;-71
2023/08/25 07:01:32;;;;;;;70.13;36.20;;;19.50;99.90;;;;;;5033532;28;20489;-72
2023/08/25 07:03:59;;;;;;;72.17;37.47;;;19.60;99.90;;;;;;5033572;28;20453;-71
2023/08/25 07:06:26;;;;;;;73.37;36.70;;;19.70;99.90;;;;;;5033216;28;20886;-73
2023/08/25 07:08:53;;;;;;;70.77;38.90;;;19.70;99.90;;;;;;5033636;28;20445;-72
2023/08/25 07:11:20;;;;;;;74.13;37.80;;;19.70;99.90;;;;;;5033435;28;20470;-72
2023/08/25 07:13:47;;;;;;;71.70;38.57;;;19.80;99.90;;;;;;5033524;28;20465;-72
2023/08/25 07:16:14;;;;;;;73.83;40.00;;;19.80;99.90;;;;;;5029614;28;20845;-72
2023/08/25 07:18:40;;;;;;;67.03;38.30;;;19.80;99.90;;;;;;5033508;28;20453;-72
2023/08/25 07:21:08;;;;;;;79.63;39.73;;;19.80;99.90;;;;;;5032879;28;20476;-72
2023/08/25 07:23:35;;;;;;;74.63;39.90;;;19.90;99.90;;;;;;5033037;28;20540;-72
2023/08/25 07:26:03;;;;;;;74.57;39.47;;;19.80;99.90;;;;;;5031609;28;20868;-71
2023/08/25 07:28:30;;;;;;;70.10;36.77;;;19.90;99.90;;;;;;5033216;28;20546;-72
2023/08/25 07:30:59;;;;;;;64.43;37.97;;;19.90;99.90;;;;;;5030700;28;20975;-71
2023/08/25 07:33:25;;;;;;;65.10;37.30;;;19.90;99.90;;;;;;5032830;28;20481;-72
2023/08/25 07:35:52;;;;;;;61.93;36.23;;;19.90;99.90;;;;;;5032251;28;20453;-72
2023/08/25 07:38:19;;;;;;;61.43;35.50;;;19.80;99.90;;;;;;5032885;28;20446;-72
2023/08/25 07:40:46;;;;;;;60.73;35.87;;;19.80;99.90;;;;;;5032704;28;20844;-72
2023/08/25 07:43:14;;;;;;;61.03;34.83;;;19.80;99.90;;;;;;5033206;28;20851;-73
2023/08/25 07:45:40;;;;;;;61.23;33.07;;;19.80;99.90;;;;;;5030492;28;20457;-71
2023/08/25 07:48:08;;;;;;;58.60;33.83;;;19.80;99.90;;;;;;5030331;28;21280;-71
2023/08/25 07:50:35;;;;;;;60.77;36.60;;;19.80;99.90;;;;;;5031648;28;20473;-72
2023/08/25 07:53:02;;;;;;;55.07;35.30;;;19.80;99.90;;;;;;5032917;28;20505;-70
2023/08/25 07:55:29;;;;;;;58.93;37.27;;;19.80;99.90;;;;;;5032688;28;20456;-68
2023/08/25 07:57:56;;;;;;;59.97;37.00;;;19.80;99.90;;;;;;5032698;28;20492;-66
2023/08/25 08:00:25;;;;;;;58.03;37.67;;;19.90;99.90;;;;;;5031994;28;20481;-66
2023/08/25 08:02:51;;;;;;;57.13;36.90;;;19.90;99.90;;;;;;5032539;28;20445;-65
2023/08/25 08:05:18;;;;;;;59.70;36.97;;;20.00;99.90;;;;;;5031787;28;20462;-65
2023/08/25 08:07:47;;;;;;;56.70;35.77;;;20.00;99.90;;;;;;5032567;28;20507;-66
2023/08/25 08:10:14;;;;;;;48.73;33.87;;;20.10;99.90;;;;;;5031794;28;20487;-66
2023/08/25 08:12:42;;;;;;;42.40;30.33;;;20.30;99.90;;;;;;5032056;28;20868;-66
2023/08/25 08:15:10;;;;;;;43.17;31.03;;;20.50;99.90;;;;;;5032114;28;20488;-66
2023/08/25 08:17:38;;;;;;;42.17;29.67;;;20.70;99.90;;;;;;5032422;28;20445;-66
2023/08/25 08:20:08;;;;;;;40.77;27.27;;;20.90;99.90;;;;;;5032175;28;20495;-66
2023/08/25 08:22:35;;;;;;;31.50;23.73;;;21.20;99.90;;;;;;5032220;28;20467;-66
2023/08/25 08:25:03;;;;;;;31.90;24.20;;;21.30;99.90;;;;;;5031578;28;20942;-66
2023/08/25 08:27:29;;;;;;;28.27;22.33;;;21.50;99.90;;;;;;5032251;28;20449;-66
2023/08/25 08:29:56;;;;;;;27.37;18.70;;;21.70;99.90;;;;;;5032277;28;20449;-66
2023/08/25 08:32:22;;;;;;;25.00;17.17;;;21.80;99.90;;;;;;5031902;28;20437;-67
2023/08/25 08:34:50;;;;;;;20.83;15.00;;;22.10;99.90;;;;;;5028394;28;20453;-66
2023/08/25 08:37:17;;;;;;;18.70;12.43;;;22.60;99.90;;;;;;5030439;28;20500;-67
2023/08/25 08:39:44;;;;;;;22.40;16.13;;;22.90;99.90;;;;;;5027646;28;20449;-66
2023/08/25 08:42:14;;;;;;;19.53;14.77;;;23.20;99.90;;;;;;5031673;28;20861;-67
2023/08/25 08:44:45;;;;;;;21.43;13.80;;;23.30;99.90;;;;;;5031919;28;20442;-67
2023/08/25 08:47:12;;;;;;;19.33;15.03;;;23.40;99.90;;;;;;5030835;28;20507;-66
2023/08/25 08:49:40;;;;;;;18.10;13.87;;;23.60;99.90;;;;;;5030825;28;20457;-67
2023/08/25 08:52:09;;;;;;;18.17;13.23;;;23.90;99.90;;;;;;5027862;28;20483;-67
2023/08/25 08:54:37;;;;;;;19.73;13.60;;;23.70;99.90;;;;;;5030934;28;20507;-67
2023/08/25 08:57:04;;;;;;;17.40;13.60;;;23.60;99.90;;;;;;5031385;28;20507;-67
2023/08/25 08:59:31;;;;;;;13.90;9.80;;;23.60;99.90;;;;;;5030625;28;20823;-67
2023/08/25 09:01:58;;;;;;;17.50;12.90;;;23.70;99.90;;;;;;5027453;28;20497;-66
2023/08/25 09:04:26;;;;;;;14.33;10.53;;;23.90;99.90;;;;;;5030657;28;20514;-66
2023/08/25 09:06:53;;;;;;;11.03;9.07;;;24.10;99.90;;;;;;5030841;28;20445;-66
2023/08/25 09:09:21;;;;;;;9.43;7.27;;;24.50;99.90;;;;;;5030827;28;20456;-67
2023/08/25 09:11:48;;;;;;;14.80;4.73;;;24.70;99.90;;;;;;5030823;28;20453;-67
2023/08/25 09:14:23;;;;;;;11.87;4.70;;;24.80;99.90;;;;;;5030357;28;20465;-68
2023/08/25 09:16:50;;;;;;;4.90;4.40;;;24.70;99.90;;;;;;5026858;28;20463;-67
2023/08/25 09:19:17;;;;;;;8.90;4.80;;;24.30;99.90;;;;;;5030650;28;20499;-68
2023/08/25 09:21:45;;;;;;;7.03;4.23;;;24.10;99.90;;;;;;5025617;28;20551;-67
2023/08/25 09:24:19;;;;;;;11.13;4.73;;;23.80;99.90;;;;;;5030640;28;20978;-67
2023/08/25 09:26:47;;;;;;;6.23;5.40;;;23.40;99.90;;;;;;5026116;28;20460;-69
2023/08/25 09:29:14;;;;;;;6.27;4.97;;;23.20;99.90;;;;;;5030511;28;20449;-68
2023/08/25 09:31:42;;;;;;;8.43;5.47;;;23.10;99.90;;;;;;5030240;28;20986;-67
2023/08/25 09:34:10;;;;;;;6.23;4.40;;;22.90;99.90;;;;;;5030260;28;20453;-67
2023/08/25 09:36:51;;;;;;;10.17;5.50;;;22.90;99.90;;;;;;5030363;28;20788;-67
2023/08/25 09:39:18;;;;;;;10.17;5.80;;;22.70;99.90;;;;;;5026920;28;20871;-67
2023/08/25 09:41:47;;;;;;;8.73;6.03;;;22.60;99.90;;;;;;5030054;28;20493;-67
2023/08/25 09:44:15;;;;;;;12.13;6.90;;;22.50;99.90;;;;;;5030216;28;20450;-67
2023/08/25 09:46:42;;;;;;;5.80;5.03;;;22.40;99.90;;;;;;5029945;28;20456;-68
2023/08/25 09:49:12;;;;;;;7.83;5.43;;;22.40;99.90;;;;;;5028075;28;20519;-67
2023/08/25 09:51:41;;;;;;;12.23;5.60;;;22.40;99.90;;;;;;5029391;28;21010;-68
2023/08/25 09:54:09;;;;;;;10.43;6.03;;;22.50;99.90;;;;;;5030316;28;20527;-67
2023/08/25 09:56:37;;;;;;;8.23;5.50;;;22.50;99.90;;;;;;5029957;28;20454;-67
2023/08/25 09:59:06;;;;;;;7.03;5.23;;;22.60;99.90;;;;;;5027617;28;20942;-67
2023/08/25 10:01:34;;;;;;;7.97;5.60;;;22.70;99.90;;;;;;5029652;28;20489;-67
2023/08/25 10:04:02;;;;;;;11.90;5.67;;;22.80;99.90;;;;;;5029505;28;20531;-67
2023/08/25 10:06:30;;;;;;;7.70;4.70;;;23.00;99.90;;;;;;5029893;28;20515;-67
2023/08/25 10:08:57;;;;;;;4.60;4.20;;;23.10;99.90;;;;;;5029836;28;21010;-67
2023/08/25 10:11:28;;;;;;;10.63;4.43;;;23.10;99.90;;;;;;5027142;28;20558;-67
2023/08/25 10:13:55;;;;;;;6.30;4.33;;;23.20;99.90;;;;;;5030707;28;20548;-66
2023/08/25 10:16:25;;;;;;;4.70;4.30;;;23.20;99.90;;;;;;5030712;28;20480;-67
2023/08/25 10:18:53;;;;;;;6.07;4.50;;;23.30;99.90;;;;;;5034029;28;20511;-66
2023/08/25 10:21:21;;;;;;;4.50;4.10;;;23.40;99.90;;;;;;5032140;28;20497;-67
2023/08/25 10:23:52;;;;;;;6.07;4.20;;;23.50;99.90;;;;;;5033975;28;20515;-67
2023/08/25 10:26:19;;;;;;;5.03;4.53;;;23.50;99.90;;;;;;5033753;28;20495;-67
2023/08/25 10:28:47;;;;;;;5.47;4.30;;;23.60;99.90;;;;;;5033264;28;20509;-67
2023/08/25 10:31:14;;;;;;;6.07;4.27;;;23.60;99.90;;;;;;5033167;28;20963;-67
2023/08/25 10:33:49;;;;;;;6.40;4.90;;;23.80;99.90;;;;;;5033448;28;21224;-67
2023/08/25 10:36:17;;;;;;;4.00;3.70;;;24.00;99.90;;;;;;5030738;28;20467;-66
2023/08/25 10:38:47;;;;;;;7.47;4.03;;;24.30;99.90;;;;;;5028721;28;20544;-67
2023/08/25 10:41:16;;;;;;;7.80;4.83;;;24.70;99.90;;;;;;5033071;28;20520;-68
2023/08/25 10:43:48;;;;;;;7.03;4.40;;;25.30;99.90;;;;;;5028684;28;20549;-68
2023/08/25 10:46:14;;;;;;;5.17;4.07;;;25.50;99.90;;;;;;5033587;28;21161;-67
2023/08/25 10:48:42;;;;;;;6.50;3.80;;;25.80;99.90;;;;;;5031725;28;20453;-68
2023/08/25 10:51:11;;;;;;;4.97;3.73;;;26.10;99.90;;;;;;5032754;28;20464;-67
2023/08/25 10:53:42;;;;;;;9.10;4.70;;;26.40;99.90;;;;;;5033406;28;20946;-67
2023/08/25 10:56:16;;;;;;;10.73;4.30;;;26.70;99.90;;;;;;5034141;28;20495;-68
2023/08/25 10:58:43;;;;;;;7.23;3.90;;;26.60;99.90;;;;;;5033538;28;20448;-68
2023/08/25 11:01:10;;;;;;;9.30;4.23;;;26.80;99.90;;;;;;5030145;28;20493;-68
2023/08/25 11:03:46;;;;;;;9.67;5.10;;;26.80;99.90;;;;;;5032919;28;20442;-68
2023/08/25 11:06:39;;;;;;;6.63;4.30;;;27.00;99.90;;;;;;5032789;28;20449;-68
2023/08/25 11:09:07;;;;;;;8.93;4.53;;;27.10;99.90;;;;;;5030880;28;20499;-68
2023/08/25 11:11:36;;;;;;;6.60;4.33;;;26.70;99.90;;;;;;5032574;28;20461;-68
2023/08/25 11:14:03;;;;;;;9.03;4.47;;;26.50;99.90;;;;;;5030186;28;20489;-68
2023/08/25 11:16:30;;;;;;;4.37;3.97;;;26.60;99.90;;;;;;5027981;28;20465;-68
2023/08/25 11:18:57;;;;;;;5.53;4.67;;;26.60;99.90;;;;;;5033103;28;20874;-68
2023/08/25 11:21:24;;;;;;;6.07;4.90;;;26.50;99.90;;;;;;5029653;28;20511;-68
2023/08/25 11:23:52;;;;;;;5.63;4.00;;;26.30;99.90;;;;;;5032088;28;20873;-68
2023/08/25 11:26:19;;;;;;;5.37;4.90;;;26.20;99.90;;;;;;5032406;28;20457;-68
2023/08/25 11:28:50;;;;;;;6.30;4.27;;;26.10;99.90;;;;;;5032410;28;20445;-68
2023/08/25 11:31:20;;;;;;;5.97;4.53;;;26.10;99.90;;;;;;5031939;28;20512;-68
2023/08/25 11:33:47;;;;;;;7.50;4.60;;;26.20;99.90;;;;;;5031203;28;21000;-69
2023/08/25 11:36:16;;;;;;;4.70;3.63;;;26.20;99.90;;;;;;5032444;28;20449;-68
2023/08/25 11:38:46;;;;;;;7.10;4.97;;;26.10;99.90;;;;;;5031055;28;20449;-69
2023/08/25 11:41:15;;;;;;;8.53;4.60;;;26.00;99.90;;;;;;5031597;28;20465;-69
2023/08/25 11:43:43;;;;;;;7.17;4.77;;;26.00;99.90;;;;;;5031805;28;20492;-68
2023/08/25 11:46:10;;;;;;;7.60;4.13;;;25.90;99.90;;;;;;5027932;28;20458;-69
2023/08/25 11:48:37;;;;;;;7.50;4.60;;;25.80;99.90;;;;;;5030893;28;20449;-68
2023/08/25 11:51:04;;;;;;;6.40;4.60;;;25.70;99.90;;;;;;5032018;28;20470;-69
2023/08/25 11:53:31;;;;;;;5.83;4.47;;;25.70;99.90;;;;;;5030299;28;20544;-68
2023/08/25 11:55:59;;;;;;;9.43;4.30;;;25.80;99.90;;;;;;5031035;28;20454;-69
2023/08/25 11:58:31;;;;;;;6.47;4.27;;;25.80;99.90;;;;;;5030676;28;20516;-69
2023/08/25 12:01:07;;;;;;;7.83;3.17;;;25.90;99.90;;;;;;5029164;28;20477;-69
2023/08/25 12:03:33;;;;;;;6.50;3.63;;;26.10;99.90;;;;;;5032098;28;20437;-68
2023/08/25 12:06:04;;;;;;;5.50;3.40;;;26.20;99.90;;;;;;5032747;28;20519;-69
2023/08/25 12:08:31;;;;;;;5.73;3.60;;;26.40;99.90;;;;;;5031942;28;20503;-70
2023/08/25 12:10:58;;;;;;;5.77;3.60;;;26.40;99.90;;;;;;5032374;28;20465;-69
2023/08/25 12:13:26;;;;;;;4.20;3.80;;;26.40;99.90;;;;;;5032247;28;20442;-68
2023/08/25 12:15:54;;;;;;;6.63;3.47;;;26.50;99.90;;;;;;5027625;28;20544;-69
2023/08/25 12:18:22;;;;;;;12.03;4.03;;;26.60;99.90;;;;;;5032395;28;20441;-68
2023/08/25 12:20:49;;;;;;;5.50;4.07;;;26.70;99.90;;;;;;5031663;28;20464;-68
2023/08/25 12:23:16;;;;;;;5.40;4.00;;;26.70;99.90;;;;;;5032188;28;20485;-68
2023/08/25 12:25:43;;;;;;;7.07;3.57;;;26.50;99.90;;;;;;5032301;28;20818;-68
2023/08/25 12:28:11;;;;;;;4.53;3.70;;;26.40;99.90;;;;;;5032202;28;20477;-68
2023/08/25 12:30:38;;;;;;;5.30;3.57;;;26.30;99.90;;;;;;5032039;28;20473;-68
2023/08/25 12:33:06;;;;;;;6.30;4.10;;;26.20;99.90;;;;;;5031336;28;21026;-68